sensor_id;sensor_type;location;lat;lon;timestamp;pressure;altitude;pressure_sealevel;temperature;humidity
50867;BME280;36839;51.946;21.002;2023-04-28T00:02:27;100610.34;;;0.36;100.00
50867;BME280;36839;51.946;21.002;2023-04-28T00:04:58;100610.09;;;0.36;100.00
50867;BME280;36839;51.946;21.002;2023-04-28T00:07:27;100612.66;;;0.37;100.00
50867;BME280;36839;51.946;21.002;2023-04-28T00:09:54;100612.19;;;0.38;100.00
50867;BME280;36839;51.946;21.002;2023-04-28T00:12:25;100606.75;;;0.37;100.00
50867;BME280;36839;51.946;21.002;2023-04-28T00:14:54;100607.02;;;0.33;100.00
50867;BME280;36839;51.946;21.002;2023-04-28T00:17:24;100604.64;;;0.29;100.00
50867;BME280;36839;51.946;21.002;2023-04-28T00:19:51;100609.55;;;0.23;100.00
50867;BME280;36839;51.946;21.002;2023-04-28T00:22:20;100616.30;;;0.17;100.00
50867;BME280;36839;51.946;21.002;2023-04-28T00:24:49;100618.16;;;0.08;100.00
50867;BME280;36839;51.946;21.002;2023-04-28T00:27:17;100616.39;;;0.05;100.00
50867;BME280;36839;51.946;21.002;2023-04-28T00:29:44;100617.14;;;0.05;100.00
50867;BME280;36839;51.946;21.002;2023-04-28T00:32:13;100617.37;;;0.03;100.00
50867;BME280;36839;51.946;21.002;2023-04-28T00:34:43;100617.64;;;0.01;100.00
50867;BME280;36839;51.946;21.002;2023-04-28T00:37:12;100614.70;;;0.00;100.00
50867;BME280;36839;51.946;21.002;2023-04-28T00:39:39;100615.93;;;-0.01;100.00
50867;BME280;36839;51.946;21.002;2023-04-28T00:42:10;100618.08;;;-0.04;100.00
50867;BME280;36839;51.946;21.002;2023-04-28T00:44:39;100619.80;;;-0.08;100.00
50867;BME280;36839;51.946;21.002;2023-04-28T00:47:08;100621.14;;;-0.13;100.00
50867;BME280;36839;51.946;21.002;2023-04-28T00:49:36;100619.21;;;-0.19;100.00
50867;BME280;36839;51.946;21.002;2023-04-28T00:52:05;100618.80;;;-0.24;100.00
50867;BME280;36839;51.946;21.002;2023-04-28T00:54:33;100620.20;;;-0.26;100.00
50867;BME280;36839;51.946;21.002;2023-04-28T00:57:02;100618.95;;;-0.28;100.00
50867;BME280;36839;51.946;21.002;2023-04-28T00:59:32;100623.06;;;-0.30;100.00
50867;BME280;36839;51.946;21.002;2023-04-28T01:01:59;100621.91;;;-0.29;100.00
50867;BME280;36839;51.946;21.002;2023-04-28T01:04:28;100621.04;;;-0.29;100.00
50867;BME280;36839;51.946;21.002;2023-04-28T01:06:56;100625.54;;;-0.33;100.00
50867;BME280;36839;51.946;21.002;2023-04-28T01:09:24;100622.39;;;-0.37;100.00
50867;BME280;36839;51.946;21.002;2023-04-28T01:11:53;100622.52;;;-0.38;100.00
50867;BME280;36839;51.946;21.002;2023-04-28T01:14:22;100624.71;;;-0.41;100.00
50867;BME280;36839;51.946;21.002;2023-04-28T01:16:58;100625.95;;;-0.44;100.00
50867;BME280;36839;51.946;21.002;2023-04-28T01:19:26;100622.93;;;-0.44;100.00
50867;BME280;36839;51.946;21.002;2023-04-28T01:21:54;100628.17;;;-0.46;100.00
50867;BME280;36839;51.946;21.002;2023-04-28T01:24:23;100630.02;;;-0.46;100.00
50867;BME280;36839;51.946;21.002;2023-04-28T01:26:53;100629.11;;;-0.47;100.00
50867;BME280;36839;51.946;21.002;2023-04-28T01:29:22;100628.08;;;-0.48;100.00
50867;BME280;36839;51.946;21.002;2023-04-28T01:31:52;100627.38;;;-0.48;100.00
50867;BME280;36839;51.946;21.002;2023-04-28T01:34:27;100628.77;;;-0.51;100.00
50867;BME280;36839;51.946;21.002;2023-04-28T01:36:59;100630.27;;;-0.52;100.00
50867;BME280;36839;51.946;21.002;2023-04-28T01:39:26;100626.95;;;-0.53;100.00
50867;BME280;36839;51.946;21.002;2023-04-28T01:41:53;100628.33;;;-0.56;100.00
50867;BME280;36839;51.946;21.002;2023-04-28T01:44:22;100629.10;;;-0.60;100.00
50867;BME280;36839;51.946;21.002;2023-04-28T01:46:53;100628.20;;;-0.62;100.00
50867;BME280;36839;51.946;21.002;2023-04-28T01:49:24;100630.62;;;-0.66;100.00
50867;BME280;36839;51.946;21.002;2023-04-28T01:51:52;100631.13;;;-0.70;100.00
50867;BME280;36839;51.946;21.002;2023-04-28T01:54:24;100630.20;;;-0.74;100.00
50867;BME280;36839;51.946;21.002;2023-04-28T01:56:54;100637.79;;;-0.77;100.00
50867;BME280;36839;51.946;21.002;2023-04-28T01:59:21;100633.38;;;-0.79;100.00
50867;BME280;36839;51.946;21.002;2023-04-28T02:01:49;100632.69;;;-0.81;100.00
50867;BME280;36839;51.946;21.002;2023-04-28T02:04:16;100630.38;;;-0.83;100.00
50867;BME280;36839;51.946;21.002;2023-04-28T02:06:45;100632.98;;;-0.81;100.00
50867;BME280;36839;51.946;21.002;2023-04-28T02:09:22;100631.32;;;-0.80;100.00
50867;BME280;36839;51.946;21.002;2023-04-28T02:11:50;100630.70;;;-0.80;100.00
50867;BME280;36839;51.946;21.002;2023-04-28T02:14:17;100634.79;;;-0.79;100.00
50867;BME280;36839;51.946;21.002;2023-04-28T02:16:46;100629.90;;;-0.80;100.00
50867;BME280;36839;51.946;21.002;2023-04-28T02:19:14;100628.92;;;-0.83;100.00
50867;BME280;36839;51.946;21.002;2023-04-28T02:21:42;100630.27;;;-0.87;100.00
50867;BME280;36839;51.946;21.002;2023-04-28T02:24:13;100625.65;;;-0.89;100.00
50867;BME280;36839;51.946;21.002;2023-04-28T02:26:40;100630.00;;;-0.90;100.00
50867;BME280;36839;51.946;21.002;2023-04-28T02:29:09;100626.77;;;-0.92;100.00
50867;BME280;36839;51.946;21.002;2023-04-28T02:31:36;100627.71;;;-0.94;100.00
50867;BME280;36839;51.946;21.002;2023-04-28T02:34:04;100628.70;;;-0.96;100.00
50867;BME280;36839;51.946;21.002;2023-04-28T02:36:35;100626.27;;;-1.00;100.00
50867;BME280;36839;51.946;21.002;2023-04-28T02:39:03;100625.44;;;-1.03;100.00
50867;BME280;36839;51.946;21.002;2023-04-28T02:41:36;100630.33;;;-1.06;100.00
50867;BME280;36839;51.946;21.002;2023-04-28T02:44:09;100628.17;;;-1.09;100.00
50867;BME280;36839;51.946;21.002;2023-04-28T02:46:37;100632.35;;;-1.12;100.00
50867;BME280;36839;51.946;21.002;2023-04-28T02:49:04;100638.00;;;-1.18;100.00
50867;BME280;36839;51.946;21.002;2023-04-28T02:51:32;100635.16;;;-1.24;100.00
50867;BME280;36839;51.946;21.002;2023-04-28T02:54:01;100637.61;;;-1.26;100.00
50867;BME280;36839;51.946;21.002;2023-04-28T02:56:30;100639.60;;;-1.28;100.00
50867;BME280;36839;51.946;21.002;2023-04-28T02:58:59;100635.30;;;-1.28;100.00
50867;BME280;36839;51.946;21.002;2023-04-28T03:01:28;100637.80;;;-1.28;100.00
50867;BME280;36839;51.946;21.002;2023-04-28T03:03:56;100635.58;;;-1.29;100.00
50867;BME280;36839;51.946;21.002;2023-04-28T03:06:24;100637.85;;;-1.30;100.00
50867;BME280;36839;51.946;21.002;2023-04-28T03:08:52;100640.36;;;-1.30;100.00
50867;BME280;36839;51.946;21.002;2023-04-28T03:11:19;100639.70;;;-1.29;100.00
50867;BME280;36839;51.946;21.002;2023-04-28T03:13:48;100636.89;;;-1.28;100.00
50867;BME280;36839;51.946;21.002;2023-04-28T03:16:30;100643.33;;;-1.29;100.00
50867;BME280;36839;51.946;21.002;2023-04-28T03:18:59;100643.59;;;-1.31;100.00
50867;BME280;36839;51.946;21.002;2023-04-28T03:21:28;100652.70;;;-1.33;100.00
50867;BME280;36839;51.946;21.002;2023-04-28T03:23:55;100649.63;;;-1.33;100.00
50867;BME280;36839;51.946;21.002;2023-04-28T03:26:24;100649.02;;;-1.33;100.00
50867;BME280;36839;51.946;21.002;2023-04-28T03:28:51;100651.81;;;-1.30;100.00
50867;BME280;36839;51.946;21.002;2023-04-28T03:31:19;100648.84;;;-1.28;100.00
50867;BME280;36839;51.946;21.002;2023-04-28T03:33:48;100651.52;;;-1.25;100.00
50867;BME280;36839;51.946;21.002;2023-04-28T03:36:16;100654.83;;;-1.22;100.00
50867;BME280;36839;51.946;21.002;2023-04-28T03:38:45;100652.33;;;-1.20;100.00
50867;BME280;36839;51.946;21.002;2023-04-28T03:41:13;100655.02;;;-1.18;100.00
50867;BME280;36839;51.946;21.002;2023-04-28T03:43:42;100653.34;;;-1.18;100.00
50867;BME280;36839;51.946;21.002;2023-04-28T03:46:09;100653.56;;;-1.15;100.00
50867;BME280;36839;51.946;21.002;2023-04-28T03:48:37;100652.76;;;-1.11;100.00
50867;BME280;36839;51.946;21.002;2023-04-28T03:51:05;100654.59;;;-1.05;100.00
50867;BME280;36839;51.946;21.002;2023-04-28T03:53:32;100657.67;;;-1.01;100.00
50867;BME280;36839;51.946;21.002;2023-04-28T03:56:01;100656.73;;;-0.96;100.00
50867;BME280;36839;51.946;21.002;2023-04-28T03:58:29;100656.15;;;-0.91;100.00
50867;BME280;36839;51.946;21.002;2023-04-28T04:00:59;100653.07;;;-0.85;100.00
50867;BME280;36839;51.946;21.002;2023-04-28T04:03:27;100657.28;;;-0.80;100.00
50867;BME280;36839;51.946;21.002;2023-04-28T04:05:55;100656.42;;;-0.76;100.00
50867;BME280;36839;51.946;21.002;2023-04-28T04:08:24;100664.58;;;-0.69;100.00
50867;BME280;36839;51.946;21.002;2023-04-28T04:10:51;100665.55;;;-0.63;100.00
50867;BME280;36839;51.946;21.002;2023-04-28T04:13:22;100664.44;;;-0.55;100.00
50867;BME280;36839;51.946;21.002;2023-04-28T04:15:52;100667.50;;;-0.48;100.00
50867;BME280;36839;51.946;21.002;2023-04-28T04:18:19;100663.48;;;-0.40;100.00
50867;BME280;36839;51.946;21.002;2023-04-28T04:20:48;100670.58;;;-0.30;100.00
50867;BME280;36839;51.946;21.002;2023-04-28T04:23:19;100672.34;;;-0.21;100.00
50867;BME280;36839;51.946;21.002;2023-04-28T04:25:48;100674.57;;;-0.13;100.00
50867;BME280;36839;51.946;21.002;2023-04-28T04:28:18;100673.77;;;-0.07;100.00
50867;BME280;36839;51.946;21.002;2023-04-28T04:30:45;100679.52;;;0.03;100.00
50867;BME280;36839;51.946;21.002;2023-04-28T04:33:15;100686.27;;;0.11;100.00
50867;BME280;36839;51.946;21.002;2023-04-28T04:35:42;100688.34;;;0.17;100.00
50867;BME280;36839;51.946;21.002;2023-04-28T04:38:10;100689.98;;;0.20;100.00
50867;BME280;36839;51.946;21.002;2023-04-28T04:40:37;100686.84;;;0.25;100.00
50867;BME280;36839;51.946;21.002;2023-04-28T04:43:06;100683.75;;;0.36;100.00
50867;BME280;36839;51.946;21.002;2023-04-28T04:45:37;100681.20;;;0.48;100.00
50867;BME280;36839;51.946;21.002;2023-04-28T04:48:06;100684.15;;;0.62;100.00
50867;BME280;36839;51.946;21.002;2023-04-28T04:50:36;100691.62;;;0.73;100.00
50867;BME280;36839;51.946;21.002;2023-04-28T04:53:12;100683.94;;;0.84;100.00
50867;BME280;36839;51.946;21.002;2023-04-28T04:55:39;100685.45;;;0.97;100.00
50867;BME280;36839;51.946;21.002;2023-04-28T04:58:08;100689.45;;;1.08;100.00
50867;BME280;36839;51.946;21.002;2023-04-28T05:00:37;100691.32;;;1.21;100.00
50867;BME280;36839;51.946;21.002;2023-04-28T05:03:16;100688.40;;;1.36;100.00
50867;BME280;36839;51.946;21.002;2023-04-28T05:05:44;100686.33;;;1.51;100.00
50867;BME280;36839;51.946;21.002;2023-04-28T05:08:11;100693.20;;;1.66;100.00
50867;BME280;36839;51.946;21.002;2023-04-28T05:10:39;100691.73;;;1.80;100.00
50867;BME280;36839;51.946;21.002;2023-04-28T05:13:08;100692.30;;;1.93;100.00
50867;BME280;36839;51.946;21.002;2023-04-28T05:15:39;100688.80;;;2.06;100.00
50867;BME280;36839;51.946;21.002;2023-04-28T05:18:11;100691.64;;;2.20;100.00
50867;BME280;36839;51.946;21.002;2023-04-28T05:20:40;100689.64;;;2.34;100.00
50867;BME280;36839;51.946;21.002;2023-04-28T05:23:10;100692.37;;;2.49;100.00
50867;BME280;36839;51.946;21.002;2023-04-28T05:25:39;100691.73;;;2.63;100.00
50867;BME280;36839;51.946;21.002;2023-04-28T05:28:09;100688.20;;;2.78;100.00
50867;BME280;36839;51.946;21.002;2023-04-28T05:30:38;100686.65;;;2.94;100.00
50867;BME280;36839;51.946;21.002;2023-04-28T05:33:07;100684.17;;;3.06;100.00
50867;BME280;36839;51.946;21.002;2023-04-28T05:35:34;100681.86;;;3.22;100.00
50867;BME280;36839;51.946;21.002;2023-04-28T05:38:02;100682.02;;;3.36;100.00
50867;BME280;36839;51.946;21.002;2023-04-28T05:40:34;100682.28;;;3.53;100.00
50867;BME280;36839;51.946;21.002;2023-04-28T05:43:03;100681.24;;;3.68;100.00
50867;BME280;36839;51.946;21.002;2023-04-28T05:45:32;100684.56;;;3.83;100.00
50867;BME280;36839;51.946;21.002;2023-04-28T05:47:59;100682.70;;;3.99;100.00
50867;BME280;36839;51.946;21.002;2023-04-28T05:50:29;100682.21;;;4.15;100.00
50867;BME280;36839;51.946;21.002;2023-04-28T05:52:57;100680.77;;;4.28;100.00
50867;BME280;36839;51.946;21.002;2023-04-28T05:55:26;100683.05;;;4.42;100.00
50867;BME280;36839;51.946;21.002;2023-04-28T05:57:56;100684.73;;;4.56;100.00
50867;BME280;36839;51.946;21.002;2023-04-28T06:00:25;100685.06;;;4.72;100.00
50867;BME280;36839;51.946;21.002;2023-04-28T06:02:52;100685.02;;;4.89;100.00
50867;BME280;36839;51.946;21.002;2023-04-28T06:05:19;100683.20;;;5.01;100.00
50867;BME280;36839;51.946;21.002;2023-04-28T06:07:59;100683.73;;;5.15;100.00
50867;BME280;36839;51.946;21.002;2023-04-28T06:10:26;100688.75;;;5.29;100.00
50867;BME280;36839;51.946;21.002;2023-04-28T06:12:53;100684.31;;;5.43;100.00
50867;BME280;36839;51.946;21.002;2023-04-28T06:15:21;100682.28;;;5.57;100.00
50867;BME280;36839;51.946;21.002;2023-04-28T06:17:54;100683.61;;;5.70;100.00
50867;BME280;36839;51.946;21.002;2023-04-28T06:20:23;100683.02;;;5.84;100.00
50867;BME280;36839;51.946;21.002;2023-04-28T06:22:52;100685.06;;;5.98;100.00
50867;BME280;36839;51.946;21.002;2023-04-28T06:25:21;100685.44;;;6.13;100.00
50867;BME280;36839;51.946;21.002;2023-04-28T06:27:49;100688.09;;;6.27;100.00
50867;BME280;36839;51.946;21.002;2023-04-28T06:30:23;100689.83;;;6.40;100.00
50867;BME280;36839;51.946;21.002;2023-04-28T06:32:51;100691.19;;;6.51;100.00
50867;BME280;36839;51.946;21.002;2023-04-28T06:35:23;100685.16;;;6.62;100.00
50867;BME280;36839;51.946;21.002;2023-04-28T06:37:50;100688.77;;;6.73;100.00
50867;BME280;36839;51.946;21.002;2023-04-28T06:40:20;100686.89;;;6.83;100.00
50867;BME280;36839;51.946;21.002;2023-04-28T06:42:48;100687.55;;;6.92;100.00
50867;BME280;36839;51.946;21.002;2023-04-28T06:45:17;100685.11;;;7.02;100.00
50867;BME280;36839;51.946;21.002;2023-04-28T06:47:46;100682.85;;;7.16;99.79
50867;BME280;36839;51.946;21.002;2023-04-28T06:50:15;100682.93;;;7.29;99.75
50867;BME280;36839;51.946;21.002;2023-04-28T06:52:45;100685.96;;;7.40;99.74
50867;BME280;36839;51.946;21.002;2023-04-28T06:55:14;100687.17;;;7.50;94.35
50867;BME280;36839;51.946;21.002;2023-04-28T06:57:49;100685.48;;;7.62;91.09
50867;BME280;36839;51.946;21.002;2023-04-28T07:00:18;100682.80;;;7.77;89.89
50867;BME280;36839;51.946;21.002;2023-04-28T07:02:47;100686.84;;;7.90;88.61
50867;BME280;36839;51.946;21.002;2023-04-28T07:05:14;100679.79;;;8.02;88.52
50867;BME280;36839;51.946;21.002;2023-04-28T07:07:44;100685.75;;;8.17;90.80
50867;BME280;36839;51.946;21.002;2023-04-28T07:10:13;100688.83;;;8.31;90.50
50867;BME280;36839;51.946;21.002;2023-04-28T07:12:43;100687.27;;;8.46;88.27
50867;BME280;36839;51.946;21.002;2023-04-28T07:15:11;100681.62;;;8.55;78.81
50867;BME280;36839;51.946;21.002;2023-04-28T07:17:40;100683.55;;;8.68;76.39
50867;BME280;36839;51.946;21.002;2023-04-28T07:20:11;100677.23;;;8.86;76.64
50867;BME280;36839;51.946;21.002;2023-04-28T07:22:41;100671.06;;;9.08;74.93
50867;BME280;36839;51.946;21.002;2023-04-28T07:25:18;100676.10;;;9.33;73.10
50867;BME280;36839;51.946;21.002;2023-04-28T07:27:49;100674.85;;;9.55;69.83
50867;BME280;36839;51.946;21.002;2023-04-28T07:30:21;100672.39;;;9.75;68.00
50867;BME280;36839;51.946;21.002;2023-04-28T07:33:00;100673.02;;;10.00;69.80
50867;BME280;36839;51.946;21.002;2023-04-28T07:35:29;100670.95;;;10.11;66.97
50867;BME280;36839;51.946;21.002;2023-04-28T07:37:56;100665.19;;;10.00;59.69
50867;BME280;36839;51.946;21.002;2023-04-28T07:40:24;100664.61;;;9.91;58.33
50867;BME280;36839;51.946;21.002;2023-04-28T07:42:52;100662.44;;;9.82;57.38
50867;BME280;36839;51.946;21.002;2023-04-28T07:45:20;100660.82;;;9.71;56.34
50867;BME280;36839;51.946;21.002;2023-04-28T07:48:00;100662.01;;;9.70;57.50
50867;BME280;36839;51.946;21.002;2023-04-28T07:50:35;100661.73;;;9.74;58.70
50867;BME280;36839;51.946;21.002;2023-04-28T07:53:05;100663.41;;;9.71;56.19
50867;BME280;36839;51.946;21.002;2023-04-28T07:55:34;100656.67;;;9.79;56.62
50867;BME280;36839;51.946;21.002;2023-04-28T07:58:02;100655.63;;;10.04;57.26
50867;BME280;36839;51.946;21.002;2023-04-28T08:00:29;100654.69;;;10.37;57.20
50867;BME280;36839;51.946;21.002;2023-04-28T08:02:58;100651.59;;;10.66;55.95
50867;BME280;36839;51.946;21.002;2023-04-28T08:05:26;100645.39;;;10.82;52.86
50867;BME280;36839;51.946;21.002;2023-04-28T08:07:53;100647.32;;;10.99;52.18
50867;BME280;36839;51.946;21.002;2023-04-28T08:10:22;100643.39;;;11.17;51.66
50867;BME280;36839;51.946;21.002;2023-04-28T08:12:49;100638.20;;;11.33;50.00
50867;BME280;36839;51.946;21.002;2023-04-28T08:15:18;100637.95;;;11.52;50.34
50867;BME280;36839;51.946;21.002;2023-04-28T08:17:46;100636.98;;;11.80;48.99
50867;BME280;36839;51.946;21.002;2023-04-28T08:20:15;100639.38;;;12.02;46.44
50867;BME280;36839;51.946;21.002;2023-04-28T08:22:45;100638.58;;;12.12;43.63
50867;BME280;36839;51.946;21.002;2023-04-28T08:25:12;100640.16;;;12.19;40.54
50867;BME280;36839;51.946;21.002;2023-04-28T08:27:43;100635.23;;;12.20;40.18
50867;BME280;36839;51.946;21.002;2023-04-28T08:30:16;100634.35;;;12.06;39.67
50867;BME280;36839;51.946;21.002;2023-04-28T08:32:46;100631.09;;;11.96;42.75
50867;BME280;36839;51.946;21.002;2023-04-28T08:35:14;100632.69;;;11.77;40.40
50867;BME280;36839;51.946;21.002;2023-04-28T08:37:47;100628.27;;;11.63;40.53
50867;BME280;36839;51.946;21.002;2023-04-28T08:40:15;100628.46;;;11.65;41.17
50867;BME280;36839;51.946;21.002;2023-04-28T08:42:43;100623.85;;;11.79;42.13
50867;BME280;36839;51.946;21.002;2023-04-28T08:45:13;100628.58;;;11.76;40.02
50867;BME280;36839;51.946;21.002;2023-04-28T08:47:42;100622.27;;;11.76;39.80
50867;BME280;36839;51.946;21.002;2023-04-28T08:50:20;100621.39;;;11.82;39.66
50867;BME280;36839;51.946;21.002;2023-04-28T08:52:53;100617.84;;;11.83;39.04
50867;BME280;36839;51.946;21.002;2023-04-28T08:55:23;100620.56;;;12.05;41.50
50867;BME280;36839;51.946;21.002;2023-04-28T08:57:54;100620.20;;;12.29;42.24
50867;BME280;36839;51.946;21.002;2023-04-28T09:00:23;100619.42;;;12.47;40.45
50867;BME280;36839;51.946;21.002;2023-04-28T09:02:52;100614.02;;;12.55;39.96
50867;BME280;36839;51.946;21.002;2023-04-28T09:05:20;100615.55;;;12.72;40.79
50867;BME280;36839;51.946;21.002;2023-04-28T09:07:49;100611.95;;;12.82;41.14
50867;BME280;36839;51.946;21.002;2023-04-28T09:10:22;100612.63;;;13.04;39.54
50867;BME280;36839;51.946;21.002;2023-04-28T09:12:59;100613.31;;;13.20;40.70
50867;BME280;36839;51.946;21.002;2023-04-28T09:15:33;100606.94;;;13.22;40.33
50867;BME280;36839;51.946;21.002;2023-04-28T09:18:06;100609.85;;;13.14;41.15
50867;BME280;36839;51.946;21.002;2023-04-28T09:20:36;100611.85;;;12.95;40.29
50867;BME280;36839;51.946;21.002;2023-04-28T09:23:31;100608.46;;;12.91;40.98
50867;BME280;36839;51.946;21.002;2023-04-28T09:28:50;100606.69;;;13.07;39.58
50867;BME280;36839;51.946;21.002;2023-04-28T09:31:33;100606.02;;;13.01;40.45
50867;BME280;36839;51.946;21.002;2023-04-28T09:34:08;100594.48;;;12.76;37.98
50867;BME280;36839;51.946;21.002;2023-04-28T09:36:36;100605.29;;;12.45;37.96
50867;BME280;36839;51.946;21.002;2023-04-28T09:39:05;100602.20;;;12.32;38.40
50867;BME280;36839;51.946;21.002;2023-04-28T09:41:36;100604.41;;;12.28;39.15
50867;BME280;36839;51.946;21.002;2023-04-28T09:44:17;100600.46;;;12.21;38.56
50867;BME280;36839;51.946;21.002;2023-04-28T09:46:46;100597.82;;;12.11;38.72
50867;BME280;36839;51.946;21.002;2023-04-28T09:49:18;100595.95;;;11.98;39.30
50867;BME280;36839;51.946;21.002;2023-04-28T09:51:45;100591.79;;;11.97;39.61
50867;BME280;36839;51.946;21.002;2023-04-28T09:54:12;100588.15;;;11.88;39.33
50867;BME280;36839;51.946;21.002;2023-04-28T09:56:43;100588.93;;;11.89;39.09
50867;BME280;36839;51.946;21.002;2023-04-28T09:59:13;100581.73;;;11.71;39.53
50867;BME280;36839;51.946;21.002;2023-04-28T10:01:42;100575.73;;;11.58;39.09
50867;BME280;36839;51.946;21.002;2023-04-28T10:04:13;100574.20;;;11.59;40.14
50867;BME280;36839;51.946;21.002;2023-04-28T10:06:41;100567.77;;;11.56;39.91
50867;BME280;36839;51.946;21.002;2023-04-28T10:09:11;100566.27;;;11.66;39.74
50867;BME280;36839;51.946;21.002;2023-04-28T10:11:45;100565.79;;;11.70;39.44
50867;BME280;36839;51.946;21.002;2023-04-28T10:14:13;100563.63;;;11.60;39.85
50867;BME280;36839;51.946;21.002;2023-04-28T10:16:43;100559.30;;;11.49;39.66
50867;BME280;36839;51.946;21.002;2023-04-28T10:19:11;100555.54;;;11.47;38.71
50867;BME280;36839;51.946;21.002;2023-04-28T10:21:59;100555.66;;;11.62;40.21
50867;BME280;36839;51.946;21.002;2023-04-28T10:24:58;100553.33;;;11.78;41.25
50867;BME280;36839;51.946;21.002;2023-04-28T10:27:34;100550.05;;;11.96;40.86
50867;BME280;36839;51.946;21.002;2023-04-28T10:30:12;100546.54;;;12.08;41.01
50867;BME280;36839;51.946;21.002;2023-04-28T10:32:45;100546.96;;;12.20;40.24
50867;BME280;36839;51.946;21.002;2023-04-28T10:38:07;100548.38;;;12.38;39.81
50867;BME280;36839;51.946;21.002;2023-04-28T10:40:37;100534.43;;;12.45;41.39
50867;BME280;36839;51.946;21.002;2023-04-28T10:43:37;100538.19;;;12.42;39.72
50867;BME280;36839;51.946;21.002;2023-04-28T10:46:09;100542.19;;;12.43;38.93
50867;BME280;36839;51.946;21.002;2023-04-28T10:49:06;100535.38;;;12.52;39.92
50867;BME280;36839;51.946;21.002;2023-04-28T10:51:34;100533.98;;;12.39;40.06
50867;BME280;36839;51.946;21.002;2023-04-28T10:54:12;100539.22;;;12.26;38.97
50867;BME280;36839;51.946;21.002;2023-04-28T10:57:16;100538.95;;;12.11;40.11
50867;BME280;36839;51.946;21.002;2023-04-28T10:59:45;100540.99;;;12.06;39.24
50867;BME280;36839;51.946;21.002;2023-04-28T11:02:42;100531.11;;;11.98;40.23
50867;BME280;36839;51.946;21.002;2023-04-28T11:05:13;100529.55;;;11.95;40.01
50867;BME280;36839;51.946;21.002;2023-04-28T11:13:38;100526.49;;;12.14;41.64
50867;BME280;36839;51.946;21.002;2023-04-28T11:16:06;100522.89;;;12.36;40.25
50867;BME280;36839;51.946;21.002;2023-04-28T11:21:42;100511.88;;;12.57;38.87
50867;BME280;36839;51.946;21.002;2023-04-28T11:24:10;100511.27;;;12.81;40.16
50867;BME280;36839;51.946;21.002;2023-04-28T11:26:39;100511.48;;;12.93;39.29
50867;BME280;36839;51.946;21.002;2023-04-28T11:29:06;100506.48;;;12.98;38.84
50867;BME280;36839;51.946;21.002;2023-04-28T11:31:34;100504.52;;;13.10;40.09
50867;BME280;36839;51.946;21.002;2023-04-28T11:34:09;100497.25;;;13.28;39.88
50867;BME280;36839;51.946;21.002;2023-04-28T11:36:44;100496.00;;;13.34;38.55
50867;BME280;36839;51.946;21.002;2023-04-28T11:39:14;100492.02;;;13.35;38.20
50867;BME280;36839;51.946;21.002;2023-04-28T11:41:44;100493.34;;;13.36;38.39
50867;BME280;36839;51.946;21.002;2023-04-28T11:44:17;100495.18;;;13.36;38.30
50867;BME280;36839;51.946;21.002;2023-04-28T11:49:22;100495.41;;;13.31;38.18
50867;BME280;36839;51.946;21.002;2023-04-28T11:52:08;100498.27;;;13.42;38.85
50867;BME280;36839;51.946;21.002;2023-04-28T11:54:36;100494.77;;;13.58;39.81
50867;BME280;36839;51.946;21.002;2023-04-28T11:57:04;100491.02;;;13.52;38.77
50867;BME280;36839;51.946;21.002;2023-04-28T11:59:35;100486.84;;;13.39;37.73
50867;BME280;36839;51.946;21.002;2023-04-28T12:02:07;100482.69;;;13.50;38.93
50867;BME280;36839;51.946;21.002;2023-04-28T12:04:41;100481.18;;;13.55;40.93
50867;BME280;36839;51.946;21.002;2023-04-28T12:07:16;100476.54;;;13.84;40.85
50867;BME280;36839;51.946;21.002;2023-04-28T12:10:13;100483.61;;;14.19;40.23
50867;BME280;36839;51.946;21.002;2023-04-28T12:12:43;100476.27;;;14.35;37.91
50867;BME280;36839;51.946;21.002;2023-04-28T12:15:15;100471.14;;;14.56;38.44
50867;BME280;36839;51.946;21.002;2023-04-28T12:17:48;100469.79;;;14.95;37.69
50867;BME280;36839;51.946;21.002;2023-04-28T12:20:37;100469.52;;;14.95;39.09
50867;BME280;36839;51.946;21.002;2023-04-28T12:23:09;100471.79;;;14.89;37.28
50867;BME280;36839;51.946;21.002;2023-04-28T12:25:44;100465.02;;;14.75;36.77
50867;BME280;36839;51.946;21.002;2023-04-28T12:28:20;100460.83;;;14.53;36.79
50867;BME280;36839;51.946;21.002;2023-04-28T12:30:48;100455.95;;;14.50;36.38
50867;BME280;36839;51.946;21.002;2023-04-28T12:33:24;100443.45;;;14.69;37.71
50867;BME280;36839;51.946;21.002;2023-04-28T12:35:56;100447.55;;;15.09;36.67
50867;BME280;36839;51.946;21.002;2023-04-28T12:38:24;100441.95;;;15.50;36.98
50867;BME280;36839;51.946;21.002;2023-04-28T12:40:51;100438.73;;;15.84;36.15
50867;BME280;36839;51.946;21.002;2023-04-28T12:43:20;100442.91;;;16.25;35.91
50867;BME280;36839;51.946;21.002;2023-04-28T12:45:53;100434.98;;;16.49;34.75
50867;BME280;36839;51.946;21.002;2023-04-28T12:48:22;100439.44;;;16.57;34.19
50867;BME280;36839;51.946;21.002;2023-04-28T12:50:53;100441.07;;;16.43;33.77
50867;BME280;36839;51.946;21.002;2023-04-28T12:53:21;100435.66;;;16.46;33.99
50867;BME280;36839;51.946;21.002;2023-04-28T12:55:54;100433.81;;;16.40;34.27
50867;BME280;36839;51.946;21.002;2023-04-28T12:58:24;100427.98;;;16.29;34.13
50867;BME280;36839;51.946;21.002;2023-04-28T13:00:54;100425.73;;;16.08;33.77
50867;BME280;36839;51.946;21.002;2023-04-28T13:03:24;100425.09;;;16.03;33.98
50867;BME280;36839;51.946;21.002;2023-04-28T13:05:59;100419.61;;;16.12;36.31
50867;BME280;36839;51.946;21.002;2023-04-28T13:08:27;100422.74;;;16.03;35.20
50867;BME280;36839;51.946;21.002;2023-04-28T13:10:58;100421.27;;;15.84;35.22
50867;BME280;36839;51.946;21.002;2023-04-28T13:13:27;100421.35;;;15.45;36.03